Home > Products > Valid Products > TAF

000
FTUS45 KCYS 301120
TAFCYS
TAF
KCYS 301120Z 3012/3112 29007KT P6SM SCT080
     FM301700 06008KT P6SM FEW080=



000
FTUS45 KCYS 301120
TAFLAR
TAF
KLAR 301120Z 3012/3112 15006KT P6SM SKC
     FM301800 04012KT P6SM FEW080=



000
FTUS45 KCYS 301120
TAFLAR
TAF
KLAR 301120Z 3012/3112 15006KT P6SM SKC
     FM301800 04012KT P6SM FEW080=



000
FTUS45 KCYS 301120
TAFCYS
TAF
KCYS 301120Z 3012/3112 29007KT P6SM SCT080
     FM301700 06008KT P6SM FEW080=



000
FTUS45 KCYS 301120
TAFRWL
TAF
KRWL 301120Z 3012/3112 VRB05KT P6SM SKC
     FM301900 27010G20KT P6SM FEW080
     FM310100 36007KT P6SM SKC=



000
FTUS45 KCYS 301120
TAFRWL
TAF
KRWL 301120Z 3012/3112 VRB05KT P6SM SKC
     FM301900 27010G20KT P6SM FEW080
     FM310100 36007KT P6SM SKC=



000
FTUS45 KCYS 300520
TAFRWL
TAF
KRWL 300520Z 3006/3106 33007KT P6SM SKC
     FM301900 27010G20KT P6SM FEW080=



000
FTUS45 KCYS 300520
TAFCYS
TAF
KCYS 300520Z 3006/3106 15008KT P6SM SCT080
     FM301700 15010G20KT P6SM FEW080=



000
FTUS45 KCYS 300520
TAFCYS
TAF
KCYS 300520Z 3006/3106 15008KT P6SM SCT080
     FM301700 15010G20KT P6SM FEW080=



000
FTUS45 KCYS 300520
TAFLAR
TAF
KLAR 300520Z 3006/3106 12006KT P6SM SKC
     FM301800 07012KT P6SM FEW080=



000
FTUS45 KCYS 300520
TAFLAR
TAF
KLAR 300520Z 3006/3106 12006KT P6SM SKC
     FM301800 07012KT P6SM FEW080=



000
FTUS45 KCYS 300520
TAFRWL
TAF
KRWL 300520Z 3006/3106 33007KT P6SM SKC
     FM301900 27010G20KT P6SM FEW080=



000
FTUS45 KCYS 300520
TAFRWL
TAF
KRWL 300520Z 3006/3106 33007KT P6SM SKC
     FM301900 27010G20KT P6SM FEW080=



000
FTUS45 KCYS 300520
TAFLAR
TAF
KLAR 300520Z 3006/3106 12006KT P6SM SKC
     FM301800 07012KT P6SM FEW080=



000
FTUS45 KCYS 300520
TAFCYS
TAF
KCYS 300520Z 3006/3106 15008KT P6SM SCT080
     FM301700 15010G20KT P6SM FEW080=



000
FTUS45 KCYS 300520
TAFLAR
TAF
KLAR 300520Z 3006/3106 12006KT P6SM SKC
     FM301800 07012KT P6SM FEW080=



000
FTUS45 KCYS 300520
TAFRWL
TAF
KRWL 300520Z 3006/3106 33007KT P6SM SKC
     FM301900 27010G20KT P6SM FEW080=



000
FTUS45 KCYS 300520
TAFCYS
TAF
KCYS 300520Z 3006/3106 15008KT P6SM SCT080
     FM301700 15010G20KT P6SM FEW080=



000
FTUS45 KCYS 292341
TAFCYS
TAF
KCYS 292341Z 3000/3024 15012G22KT P6SM SCT080
     FM300300 VRB05KT P6SM SKC
     FM301700 15010G20KT P6SM FEW080=



000
FTUS45 KCYS 292341
TAFLAR
TAF
KLAR 292341Z 3000/3024 01007KT P6SM FEW100
     FM300300 11006KT P6SM SKC
     FM301800 04012KT P6SM FEW080=



000
FTUS45 KCYS 292341
TAFRWL
TAF
KRWL 292341Z 3000/3024 28010G20KT P6SM SKC
     FM300300 32005KT P6SM SKC
     FM301900 27010G20KT P6SM FEW080=



000
FTUS45 KCYS 292341
TAFLAR
TAF
KLAR 292341Z 3000/3024 01007KT P6SM FEW100
     FM300300 11006KT P6SM SKC
     FM301800 04012KT P6SM FEW080=



000
FTUS45 KCYS 292341
TAFCYS
TAF
KCYS 292341Z 3000/3024 15012G22KT P6SM SCT080
     FM300300 VRB05KT P6SM SKC
     FM301700 15010G20KT P6SM FEW080=



000
FTUS45 KCYS 292341
TAFRWL
TAF
KRWL 292341Z 3000/3024 28010G20KT P6SM SKC
     FM300300 32005KT P6SM SKC
     FM301900 27010G20KT P6SM FEW080=



000
FTUS45 KCYS 291740
TAFCYS
TAF
KCYS 291740Z 2918/3018 16011KT P6SM SKC
     FM300100 22006KT P6SM SKC=



000
FTUS45 KCYS 291740
TAFLAR
TAF
KLAR 291740Z 2918/3018 32010KT P6SM SKC
     FM300300 12007KT P6SM SKC=



000
FTUS45 KCYS 291740
TAFRWL
TAF
KRWL 291740Z 2918/3018 28010KT P6SM SKC
     FM300300 02004KT P6SM SKC=



000
FTUS45 KCYS 291740
TAFLAR
TAF
KLAR 291740Z 2918/3018 32010KT P6SM SKC
     FM300300 12007KT P6SM SKC=



000
FTUS45 KCYS 291740
TAFRWL
TAF
KRWL 291740Z 2918/3018 28010KT P6SM SKC
     FM300300 02004KT P6SM SKC=



000
FTUS45 KCYS 291740
TAFCYS
TAF
KCYS 291740Z 2918/3018 16011KT P6SM SKC
     FM300100 22006KT P6SM SKC=



000
FTUS45 KCYS 291120
TAFRWL
TAF
KRWL 291120Z 2912/3012 32007KT P6SM SKC
     FM291600 26007KT P6SM SKC
     FM291900 26010G18KT P6SM SKC
     FM300100 28007KT P6SM SKC=



000
FTUS45 KCYS 291120
TAFCYS
TAF
KCYS 291120Z 2912/3012 VRB03KT P6SM SCT100
     FM291400 16008KT P6SM SKC
     FM291600 18012G20KT P6SM SKC
     FM300100 19006KT P6SM SKC=



000
FTUS45 KCYS 291120
TAFCYS
TAF
KCYS 291120Z 2912/3012 VRB03KT P6SM SCT100
     FM291400 16008KT P6SM SKC
     FM291600 18012G20KT P6SM SKC
     FM300100 19006KT P6SM SKC=



000
FTUS45 KCYS 291120
TAFLAR
TAF
KLAR 291120Z 2912/3012 13005KT P6SM SKC
     FM291500 16008KT P6SM SKC
     FM291800 20012G20KT P6SM SKC
     FM300100 12007KT P6SM SKC=



000
FTUS45 KCYS 291120
TAFRWL
TAF
KRWL 291120Z 2912/3012 32007KT P6SM SKC
     FM291600 26007KT P6SM SKC
     FM291900 26010G18KT P6SM SKC
     FM300100 28007KT P6SM SKC=



000
FTUS45 KCYS 291120
TAFLAR
TAF
KLAR 291120Z 2912/3012 13005KT P6SM SKC
     FM291500 16008KT P6SM SKC
     FM291800 20012G20KT P6SM SKC
     FM300100 12007KT P6SM SKC=



000
FTUS45 KCYS 291120
TAFLAR
TAF
KLAR 291120Z 2912/3012 13005KT P6SM SKC
     FM291500 16008KT P6SM SKC
     FM291800 20012G20KT P6SM SKC
     FM300100 12007KT P6SM SKC=



000
FTUS45 KCYS 291120
TAFCYS
TAF
KCYS 291120Z 2912/3012 VRB03KT P6SM SCT100
     FM291400 16008KT P6SM SKC
     FM291600 18012G20KT P6SM SKC
     FM300100 19006KT P6SM SKC=



000
FTUS45 KCYS 291120
TAFRWL
TAF
KRWL 291120Z 2912/3012 32007KT P6SM SKC
     FM291600 26007KT P6SM SKC
     FM291900 26010G18KT P6SM SKC
     FM300100 28007KT P6SM SKC=



000
FTUS45 KCYS 291120
TAFCYS
TAF
KCYS 291120Z 2912/3012 VRB03KT P6SM SCT100
     FM291400 16008KT P6SM SKC
     FM291600 18012G20KT P6SM SKC
     FM300100 19006KT P6SM SKC=



000
FTUS45 KCYS 291120
TAFRWL
TAF
KRWL 291120Z 2912/3012 32007KT P6SM SKC
     FM291600 26007KT P6SM SKC
     FM291900 26010G18KT P6SM SKC
     FM300100 28007KT P6SM SKC=



000
FTUS45 KCYS 290520
TAFLAR
TAF
KLAR 290520Z 2906/3006 07008KT P6SM SKC
     FM291500 16008KT P6SM SKC
     FM291800 20012G20KT P6SM SKC=



000
FTUS45 KCYS 290520
TAFCYS
TAF
KCYS 290520Z 2906/3006 07008KT P6SM SCT100
     FM291400 16008KT P6SM SKC
     FM291600 18012G20KT P6SM SKC=



000
FTUS45 KCYS 290520
TAFLAR
TAF
KLAR 290520Z 2906/3006 07008KT P6SM SKC
     FM291500 16008KT P6SM SKC
     FM291800 20012G20KT P6SM SKC=



000
FTUS45 KCYS 290520
TAFCYS
TAF
KCYS 290520Z 2906/3006 07008KT P6SM SCT100
     FM291400 16008KT P6SM SKC
     FM291600 18012G20KT P6SM SKC=



000
FTUS45 KCYS 290520
TAFRWL
TAF
KRWL 290520Z 2906/3006 32007KT P6SM SKC
     FM291600 26007KT P6SM SKC
     FM291900 26010G18KT P6SM SKC=



000
FTUS45 KCYS 290520
TAFRWL
TAF
KRWL 290520Z 2906/3006 32007KT P6SM SKC
     FM291600 26007KT P6SM SKC
     FM291900 26010G18KT P6SM SKC=



000
FTUS45 KCYS 290326 CCA
TAFCYS
TAF COR
KCYS 290326Z 2900/2924 VRB06KT P6SM BKN080
     FM290800 35006KT P6SM SKC
     FM291400 16008KT P6SM SKC
     FM291600 18012G20KT P6SM SKC=



000
FTUS45 KCYS 290326 CCA
TAFCYS
TAF COR
KCYS 290326Z 2900/2924 VRB06KT P6SM BKN080
     FM290800 35006KT P6SM SKC
     FM291400 16008KT P6SM SKC
     FM291600 18012G20KT P6SM SKC=



000
FTUS45 KCYS 282322
TAFRWL
TAF
KRWL 282322Z 2900/2924 27012G18KT P6SM SKC
     FM290200 33007KT P6SM SKC
     FM290600 VRB05KT P6SM SKC
     FM291900 26010G18KT P6SM SKC=



000
FTUS45 KCYS 282322
TAFCYS
TAF
KCYS 282322Z 2900/2924 20010KT P6SM SCT100
     FM290200 35006KT P6SM SKC
     FM291400 16008KT P6SM SKC
     FM291600 18012G20KT P6SM SKC=



000
FTUS45 KCYS 282322
TAFLAR
TAF
KLAR 282322Z 2900/2924 29013G20KT P6SM SKC
     FM290200 35007KT P6SM SKC
     FM290500 16008KT P6SM SKC
     FM291800 20012G20KT P6SM SKC=



000
FTUS45 KCYS 282322
TAFRWL
TAF
KRWL 282322Z 2900/2924 27012G18KT P6SM SKC
     FM290200 33007KT P6SM SKC
     FM290600 VRB05KT P6SM SKC
     FM291900 26010G18KT P6SM SKC=



000
FTUS45 KCYS 282322
TAFLAR
TAF
KLAR 282322Z 2900/2924 29013G20KT P6SM SKC
     FM290200 35007KT P6SM SKC
     FM290500 16008KT P6SM SKC
     FM291800 20012G20KT P6SM SKC=



000
FTUS45 KCYS 282322
TAFCYS
TAF
KCYS 282322Z 2900/2924 20010KT P6SM SCT100
     FM290200 35006KT P6SM SKC
     FM291400 16008KT P6SM SKC
     FM291600 18012G20KT P6SM SKC=



000
FTUS45 KCYS 282322
TAFRWL
TAF
KRWL 282322Z 2900/2924 27012G18KT P6SM SKC
     FM290200 33007KT P6SM SKC
     FM290600 VRB05KT P6SM SKC
     FM291900 26010G18KT P6SM SKC=



000
FTUS45 KCYS 282322
TAFLAR
TAF
KLAR 282322Z 2900/2924 29013G20KT P6SM SKC
     FM290200 35007KT P6SM SKC
     FM290500 16008KT P6SM SKC
     FM291800 20012G20KT P6SM SKC=



000
FTUS45 KCYS 282322
TAFCYS
TAF
KCYS 282322Z 2900/2924 20010KT P6SM SCT100
     FM290200 35006KT P6SM SKC
     FM291400 16008KT P6SM SKC
     FM291600 18012G20KT P6SM SKC=



000
FTUS45 KCYS 282322
TAFLAR
TAF
KLAR 282322Z 2900/2924 29013G20KT P6SM SKC
     FM290200 35007KT P6SM SKC
     FM290500 16008KT P6SM SKC
     FM291800 20012G20KT P6SM SKC=



000
FTUS45 KCYS 282322
TAFRWL
TAF
KRWL 282322Z 2900/2924 27012G18KT P6SM SKC
     FM290200 33007KT P6SM SKC
     FM290600 VRB05KT P6SM SKC
     FM291900 26010G18KT P6SM SKC=



000
FTUS45 KCYS 282322
TAFCYS
TAF
KCYS 282322Z 2900/2924 20010KT P6SM SCT100
     FM290200 35006KT P6SM SKC
     FM291400 16008KT P6SM SKC
     FM291600 18012G20KT P6SM SKC=



000
FTUS45 KCYS 281739
TAFRWL
TAF
KRWL 281739Z 2818/2918 27019G28KT P6SM SKC
     FM290100 31009KT P6SM SKC
     FM290400 35006KT P6SM SKC=



000
FTUS45 KCYS 281739
TAFLAR
TAF
KLAR 281739Z 2818/2918 27016G28KT P6SM SKC
     FM290200 15007KT P6SM SKC
     FM291500 15014G20KT P6SM SKC=



000
FTUS45 KCYS 281739
TAFCYS
TAF
KCYS 281739Z 2818/2918 31018G29KT P6SM SKC
     FM282000 33010G20KT P6SM SCT150
     FM290100 01007KT P6SM SKC
     FM290800 16004KT P6SM SKC
     FM291600 18011G17KT P6SM SKC=



000
FTUS45 KCYS 281739
TAFCYS
TAF
KCYS 281739Z 2818/2918 31018G29KT P6SM SKC
     FM282000 33010G20KT P6SM SCT150
     FM290100 01007KT P6SM SKC
     FM290800 16004KT P6SM SKC
     FM291600 18011G17KT P6SM SKC=



000
FTUS45 KCYS 281739
TAFRWL
TAF
KRWL 281739Z 2818/2918 27019G28KT P6SM SKC
     FM290100 31009KT P6SM SKC
     FM290400 35006KT P6SM SKC=



000
FTUS45 KCYS 281739
TAFLAR
TAF
KLAR 281739Z 2818/2918 27016G28KT P6SM SKC
     FM290200 15007KT P6SM SKC
     FM291500 15014G20KT P6SM SKC=



000
FTUS45 KCYS 281120
TAFRWL
TAF
KRWL 281120Z 2812/2912 27015G25KT P6SM SKC
     FM290100 31009KT P6SM SKC
     FM290400 06006KT P6SM SKC=



000
FTUS45 KCYS 281120
TAFCYS
TAF
KCYS 281120Z 2812/2912 31018G29KT P6SM SKC
     FM281900 30010G20KT P6SM SKC
     FM290100 34007KT P6SM SKC
     FM290800 22006KT P6SM SKC=



000
FTUS45 KCYS 281120
TAFLAR
TAF
KLAR 281120Z 2812/2912 26010KT P6SM SKC
     FM281500 28016G28KT P6SM SKC
     FM290100 15007KT P6SM SKC=



000
FTUS45 KCYS 281120
TAFRWL
TAF
KRWL 281120Z 2812/2912 27015G25KT P6SM SKC
     FM290100 31009KT P6SM SKC
     FM290400 06006KT P6SM SKC=



000
FTUS45 KCYS 281120
TAFLAR
TAF
KLAR 281120Z 2812/2912 26010KT P6SM SKC
     FM281500 28016G28KT P6SM SKC
     FM290100 15007KT P6SM SKC=



000
FTUS45 KCYS 281120
TAFCYS
TAF
KCYS 281120Z 2812/2912 31018G29KT P6SM SKC
     FM281900 30010G20KT P6SM SKC
     FM290100 34007KT P6SM SKC
     FM290800 22006KT P6SM SKC=



000
FTUS45 KCYS 280520
TAFCYS
TAF
KCYS 280520Z 2806/2906 31018G29KT P6SM SKC
     FM281900 30010G20KT P6SM SKC
     FM290100 34007KT P6SM SKC=



000
FTUS45 KCYS 280520
TAFCYS
TAF
KCYS 280520Z 2806/2906 31018G29KT P6SM SKC
     FM281900 30010G20KT P6SM SKC
     FM290100 34007KT P6SM SKC=



000
FTUS45 KCYS 280520
TAFLAR
TAF
KLAR 280520Z 2806/2906 31014G25KT P6SM SKC
     FM281200 25010KT P6SM SKC
     FM281500 28016G28KT P6SM SKC
     FM290100 15007KT P6SM SKC=



000
FTUS45 KCYS 280520
TAFRWL
TAF
KRWL 280520Z 2806/2906 28020G34KT P6SM SKC
     FM280900 27015G25KT P6SM SKC
     FM290100 31009KT P6SM SKC=



000
FTUS45 KCYS 280520
TAFLAR
TAF
KLAR 280520Z 2806/2906 31014G25KT P6SM SKC
     FM281200 25010KT P6SM SKC
     FM281500 28016G28KT P6SM SKC
     FM290100 15007KT P6SM SKC=



000
FTUS45 KCYS 280520
TAFRWL
TAF
KRWL 280520Z 2806/2906 28020G34KT P6SM SKC
     FM280900 27015G25KT P6SM SKC
     FM290100 31009KT P6SM SKC=



000
FTUS45 KCYS 280220 AAB
TAFCYS
TAF AMD
KCYS 280220Z 2802/2824 27015KT P6SM SCT150
     FM280300 32020G30KT P6SM SKC=



000
FTUS45 KCYS 280220 AAB
TAFCYS
TAF AMD
KCYS 280220Z 2802/2824 27015KT P6SM SCT150
     FM280300 32020G30KT P6SM SKC=



000
FTUS45 KCYS 280200 AAA
TAFRWL
TAF AMD
KRWL 280200Z 2802/2824 27019G34KT P6SM SKC
     FM280900 26014KT P6SM SKC
     FM281400 25017G25KT P6SM SKC=



000
FTUS45 KCYS 280200 AAA
TAFRWL
TAF AMD
KRWL 280200Z 2802/2824 27019G34KT P6SM SKC
     FM280900 26014KT P6SM SKC
     FM281400 25017G25KT P6SM SKC=



000
FTUS45 KCYS 280200 AAA
TAFRWL
TAF AMD
KRWL 280200Z 2802/2824 27019G34KT P6SM SKC
     FM280900 26014KT P6SM SKC
     FM281400 25017G25KT P6SM SKC=



000
FTUS45 KCYS 280200 AAA
TAFRWL
TAF AMD
KRWL 280200Z 2802/2824 27019G34KT P6SM SKC
     FM280900 26014KT P6SM SKC
     FM281400 25017G25KT P6SM SKC=



000
FTUS45 KCYS 280159 AAA
TAFLAR
TAF AMD
KLAR 280159Z 2802/2824 26014G21KT P6SM SKC
     FM280700 30011KT P6SM SKC
     FM281500 27015G25KT P6SM SKC=



000
FTUS45 KCYS 280159 AAA
TAFLAR
TAF AMD
KLAR 280159Z 2802/2824 26014G21KT P6SM SKC
     FM280700 30011KT P6SM SKC
     FM281500 27015G25KT P6SM SKC=



000
FTUS45 KCYS 280159 AAA
TAFLAR
TAF AMD
KLAR 280159Z 2802/2824 26014G21KT P6SM SKC
     FM280700 30011KT P6SM SKC
     FM281500 27015G25KT P6SM SKC=



000
FTUS45 KCYS 280157 AAA
TAFCYS
TAF AMD
KCYS 280157Z 2802/2824 27015KT P6SM SCT150
     FM280500 32020G30KT P6SM SKC=



000
FTUS45 KCYS 280157 AAA
TAFCYS
TAF AMD
KCYS 280157Z 2802/2824 27015KT P6SM SCT150
     FM280500 32020G30KT P6SM SKC=



000
FTUS45 KCYS 280157 AAA
TAFCYS
TAF AMD
KCYS 280157Z 2802/2824 27015KT P6SM SCT150
     FM280500 32020G30KT P6SM SKC=



000
FTUS45 KCYS 272320
TAFLAR
TAF
KLAR 272320Z 2800/2824 22025G34KT P6SM VCTS SCT120CB
     FM280100 28014G21KT P6SM SKC
     FM280700 30011KT P6SM SKC
     FM281500 27015G25KT P6SM SKC=



000
FTUS45 KCYS 272320
TAFCYS
TAF
KCYS 272320Z 2800/2824 20014G21KT P6SM VCTS BKN100CB
     FM280300 27010KT P6SM SCT150
     FM280500 32020G30KT P6SM SKC=



000
FTUS45 KCYS 272320
TAFRWL
TAF
KRWL 272320Z 2800/2824 23030G40KT P6SM VCTS SCT100CB
     FM280200 27019G34KT P6SM SKC
     FM280900 26014KT P6SM SKC
     FM281400 25017G25KT P6SM SKC=



000
FTUS45 KCYS 272320
TAFLAR
TAF
KLAR 272320Z 2800/2824 22025G34KT P6SM VCTS SCT120CB
     FM280100 28014G21KT P6SM SKC
     FM280700 30011KT P6SM SKC
     FM281500 27015G25KT P6SM SKC=



000
FTUS45 KCYS 272320
TAFLAR
TAF
KLAR 272320Z 2800/2824 22025G34KT P6SM VCTS SCT120CB
     FM280100 28014G21KT P6SM SKC
     FM280700 30011KT P6SM SKC
     FM281500 27015G25KT P6SM SKC=



000
FTUS45 KCYS 272320
TAFRWL
TAF
KRWL 272320Z 2800/2824 23030G40KT P6SM VCTS SCT100CB
     FM280200 27019G34KT P6SM SKC
     FM280900 26014KT P6SM SKC
     FM281400 25017G25KT P6SM SKC=



000
FTUS45 KCYS 272320
TAFLAR
TAF
KLAR 272320Z 2800/2824 22025G34KT P6SM VCTS SCT120CB
     FM280100 28014G21KT P6SM SKC
     FM280700 30011KT P6SM SKC
     FM281500 27015G25KT P6SM SKC=



000
FTUS45 KCYS 272320
TAFCYS
TAF
KCYS 272320Z 2800/2824 20014G21KT P6SM VCTS BKN100CB
     FM280300 27010KT P6SM SCT150
     FM280500 32020G30KT P6SM SKC=



000
FTUS45 KCYS 272320
TAFCYS
TAF
KCYS 272320Z 2800/2824 20014G21KT P6SM VCTS BKN100CB
     FM280300 27010KT P6SM SCT150
     FM280500 32020G30KT P6SM SKC=



000
FTUS45 KCYS 272320
TAFRWL
TAF
KRWL 272320Z 2800/2824 23030G40KT P6SM VCTS SCT100CB
     FM280200 27019G34KT P6SM SKC
     FM280900 26014KT P6SM SKC
     FM281400 25017G25KT P6SM SKC=



000
FTUS45 KCYS 272320
TAFCYS
TAF
KCYS 272320Z 2800/2824 20014G21KT P6SM VCTS BKN100CB
     FM280300 27010KT P6SM SCT150
     FM280500 32020G30KT P6SM SKC=



000
FTUS45 KCYS 272320
TAFRWL
TAF
KRWL 272320Z 2800/2824 23030G40KT P6SM VCTS SCT100CB
     FM280200 27019G34KT P6SM SKC
     FM280900 26014KT P6SM SKC
     FM281400 25017G25KT P6SM SKC=



000
FTUS45 KCYS 271907 AAA
TAFRWL
TAF AMD
KRWL 271907Z 2719/2818 23030G40KT P6SM VCTS SCT100CB
     FM280200 27019G34KT P6SM SKC
     FM280900 26014KT P6SM SKC=



000
FTUS45 KCYS 271907 AAA
TAFRWL
TAF AMD
KRWL 271907Z 2719/2818 23030G40KT P6SM VCTS SCT100CB
     FM280200 27019G34KT P6SM SKC
     FM280900 26014KT P6SM SKC=



000
FTUS45 KCYS 271720
TAFCYS
TAF
KCYS 271720Z 2718/2818 22011G18KT P6SM SCT150
     FM272200 22016G24KT P6SM VCTS BKN100CB
     FM280200 27010KT P6SM SCT150
     FM280500 30020G30KT P6SM SKC=



000
FTUS45 KCYS 271720
TAFLAR
TAF
KLAR 271720Z 2718/2818 21018G27KT P6SM SCT150
     FM272000 22025G34KT P6SM VCTS SCT120CB
     FM280400 28014G21KT P6SM SKC
     FM280700 30011KT P6SM SKC=



000
FTUS45 KCYS 271720
TAFRWL
TAF
KRWL 271720Z 2718/2818 20020G30KT P6SM SCT200
     FM271900 25030G40KT P6SM SCT150
     FM280200 27019G34KT P6SM SKC
     FM280900 26014KT P6SM SKC=



000
FTUS45 KCYS 271720
TAFLAR
TAF
KLAR 271720Z 2718/2818 21018G27KT P6SM SCT150
     FM272000 22025G34KT P6SM VCTS SCT120CB
     FM280400 28014G21KT P6SM SKC
     FM280700 30011KT P6SM SKC=



000
FTUS45 KCYS 271720
TAFRWL
TAF
KRWL 271720Z 2718/2818 20020G30KT P6SM SCT200
     FM271900 25030G40KT P6SM SCT150
     FM280200 27019G34KT P6SM SKC
     FM280900 26014KT P6SM SKC=



000
FTUS45 KCYS 271720
TAFCYS
TAF
KCYS 271720Z 2718/2818 22011G18KT P6SM SCT150
     FM272200 22016G24KT P6SM VCTS BKN100CB
     FM280200 27010KT P6SM SCT150
     FM280500 30020G30KT P6SM SKC=



    US Dept of Commerce
    National Oceanic and Atmospheric Administration
    National Weather Service
    1325 East West Highway
    Silver Spring, MD 20910
    Page Author: NWS Internet Services Team
Disclaimer
Information Quality
Credits
Glossary
Privacy Policy
Freedom of Information Act (FOIA)
About Us
Career Opportunities